sensor_id;sensor_type;location;lat;lon;timestamp;temperature;humidity
40085;DHT22;25786;51.504;7.344;2023-09-19T00:01:14;17.10;82.30
40085;DHT22;25786;51.504;7.344;2023-09-19T00:03:40;17.10;82.20
40085;DHT22;25786;51.504;7.344;2023-09-19T00:06:07;17.00;82.30
40085;DHT22;25786;51.504;7.344;2023-09-19T00:08:33;17.00;81.90
40085;DHT22;25786;51.504;7.344;2023-09-19T00:10:59;17.10;81.30
40085;DHT22;25786;51.504;7.344;2023-09-19T00:13:31;17.00;81.30
40085;DHT22;25786;51.504;7.344;2023-09-19T00:15:56;16.90;80.40
40085;DHT22;25786;51.504;7.344;2023-09-19T00:18:24;16.90;80.50
40085;DHT22;25786;51.504;7.344;2023-09-19T00:20:57;16.90;80.50
40085;DHT22;25786;51.504;7.344;2023-09-19T00:23:22;16.80;80.00
40085;DHT22;25786;51.504;7.344;2023-09-19T00:25:48;16.80;80.30
40085;DHT22;25786;51.504;7.344;2023-09-19T00:28:13;16.80;80.40
40085;DHT22;25786;51.504;7.344;2023-09-19T00:30:45;16.80;80.40
40085;DHT22;25786;51.504;7.344;2023-09-19T00:33:11;16.80;81.00
40085;DHT22;25786;51.504;7.344;2023-09-19T00:35:48;16.80;81.10
40085;DHT22;25786;51.504;7.344;2023-09-19T00:38:13;16.70;81.10
40085;DHT22;25786;51.504;7.344;2023-09-19T00:40:43;16.70;81.00
40085;DHT22;25786;51.504;7.344;2023-09-19T00:43:09;16.70;81.30
40085;DHT22;25786;51.504;7.344;2023-09-19T00:45:34;16.60;81.40
40085;DHT22;25786;51.504;7.344;2023-09-19T00:48:01;16.70;81.10
40085;DHT22;25786;51.504;7.344;2023-09-19T00:50:29;16.60;81.70
40085;DHT22;25786;51.504;7.344;2023-09-19T00:52:57;16.60;81.40
40085;DHT22;25786;51.504;7.344;2023-09-19T00:55:24;16.60;81.30
40085;DHT22;25786;51.504;7.344;2023-09-19T00:57:49;16.60;81.50
40085;DHT22;25786;51.504;7.344;2023-09-19T01:00:15;16.60;80.80
40085;DHT22;25786;51.504;7.344;2023-09-19T01:02:41;16.60;80.50
40085;DHT22;25786;51.504;7.344;2023-09-19T01:05:08;16.60;80.30
40085;DHT22;25786;51.504;7.344;2023-09-19T01:07:33;16.50;80.40
40085;DHT22;25786;51.504;7.344;2023-09-19T01:10:00;16.50;80.60
40085;DHT22;25786;51.504;7.344;2023-09-19T01:12:30;16.50;80.30
40085;DHT22;25786;51.504;7.344;2023-09-19T01:15:04;16.40;80.40
40085;DHT22;25786;51.504;7.344;2023-09-19T01:17:39;16.40;80.10
40085;DHT22;25786;51.504;7.344;2023-09-19T01:20:19;16.40;80.60
40085;DHT22;25786;51.504;7.344;2023-09-19T01:25:38;16.40;80.10
40085;DHT22;25786;51.504;7.344;2023-09-19T01:30:56;16.20;80.30
40085;DHT22;25786;51.504;7.344;2023-09-19T01:33:24;16.30;79.70
40085;DHT22;25786;51.504;7.344;2023-09-19T01:35:51;16.30;80.10
40085;DHT22;25786;51.504;7.344;2023-09-19T01:38:18;16.20;80.10
40085;DHT22;25786;51.504;7.344;2023-09-19T01:40:48;16.30;80.00
40085;DHT22;25786;51.504;7.344;2023-09-19T01:43:21;16.30;80.10
40085;DHT22;25786;51.504;7.344;2023-09-19T01:46:04;16.20;80.20
40085;DHT22;25786;51.504;7.344;2023-09-19T01:48:46;16.20;80.10
40085;DHT22;25786;51.504;7.344;2023-09-19T01:51:22;16.10;80.40
40085;DHT22;25786;51.504;7.344;2023-09-19T01:54:02;16.10;80.70
40085;DHT22;25786;51.504;7.344;2023-09-19T01:56:30;16.10;80.70
40085;DHT22;25786;51.504;7.344;2023-09-19T01:58:59;16.10;80.70
40085;DHT22;25786;51.504;7.344;2023-09-19T02:01:29;16.10;80.80
40085;DHT22;25786;51.504;7.344;2023-09-19T02:03:55;16.10;80.30
40085;DHT22;25786;51.504;7.344;2023-09-19T02:06:21;16.10;80.00
40085;DHT22;25786;51.504;7.344;2023-09-19T02:08:47;16.10;80.10
40085;DHT22;25786;51.504;7.344;2023-09-19T02:11:12;16.00;80.20
40085;DHT22;25786;51.504;7.344;2023-09-19T02:13:38;16.10;80.10
40085;DHT22;25786;51.504;7.344;2023-09-19T02:16:04;16.10;79.70
40085;DHT22;25786;51.504;7.344;2023-09-19T02:18:30;16.10;79.50
40085;DHT22;25786;51.504;7.344;2023-09-19T02:20:56;16.00;79.30
40085;DHT22;25786;51.504;7.344;2023-09-19T02:23:23;16.00;79.40
40085;DHT22;25786;51.504;7.344;2023-09-19T02:25:54;16.00;79.70
40085;DHT22;25786;51.504;7.344;2023-09-19T02:28:20;15.90;79.70
40085;DHT22;25786;51.504;7.344;2023-09-19T02:30:48;16.00;79.60
40085;DHT22;25786;51.504;7.344;2023-09-19T02:33:14;15.80;80.00
40085;DHT22;25786;51.504;7.344;2023-09-19T02:35:40;15.90;79.40
40085;DHT22;25786;51.504;7.344;2023-09-19T02:38:05;16.00;79.10
40085;DHT22;25786;51.504;7.344;2023-09-19T02:40:33;15.90;79.10
40085;DHT22;25786;51.504;7.344;2023-09-19T02:43:01;15.90;79.00
40085;DHT22;25786;51.504;7.344;2023-09-19T02:45:27;15.90;79.30
40085;DHT22;25786;51.504;7.344;2023-09-19T02:47:52;15.80;79.00
40085;DHT22;25786;51.504;7.344;2023-09-19T02:50:18;15.90;79.10
40085;DHT22;25786;51.504;7.344;2023-09-19T02:52:44;15.90;79.20
40085;DHT22;25786;51.504;7.344;2023-09-19T02:55:10;15.80;79.50
40085;DHT22;25786;51.504;7.344;2023-09-19T02:57:36;15.70;79.40
40085;DHT22;25786;51.504;7.344;2023-09-19T03:00:06;15.80;79.90
40085;DHT22;25786;51.504;7.344;2023-09-19T03:02:33;15.80;79.60
40085;DHT22;25786;51.504;7.344;2023-09-19T03:05:00;15.70;79.60
40085;DHT22;25786;51.504;7.344;2023-09-19T03:07:25;15.70;79.80
40085;DHT22;25786;51.504;7.344;2023-09-19T03:09:51;15.70;79.90
40085;DHT22;25786;51.504;7.344;2023-09-19T03:12:18;15.70;79.90
40085;DHT22;25786;51.504;7.344;2023-09-19T03:14:43;15.60;79.60
40085;DHT22;25786;51.504;7.344;2023-09-19T03:17:09;15.70;79.40
40085;DHT22;25786;51.504;7.344;2023-09-19T03:19:34;15.60;79.20
40085;DHT22;25786;51.504;7.344;2023-09-19T03:22:00;15.70;78.90
40085;DHT22;25786;51.504;7.344;2023-09-19T03:24:25;15.70;78.70
40085;DHT22;25786;51.504;7.344;2023-09-19T03:26:51;15.60;78.50
40085;DHT22;25786;51.504;7.344;2023-09-19T03:29:17;15.60;78.20
40085;DHT22;25786;51.504;7.344;2023-09-19T03:31:43;15.60;78.00
40085;DHT22;25786;51.504;7.344;2023-09-19T03:34:09;15.60;77.70
40085;DHT22;25786;51.504;7.344;2023-09-19T03:36:34;15.60;77.10
40085;DHT22;25786;51.504;7.344;2023-09-19T03:39:00;15.60;77.30
40085;DHT22;25786;51.504;7.344;2023-09-19T03:41:26;15.60;77.10
40085;DHT22;25786;51.504;7.344;2023-09-19T03:43:51;15.60;76.40
40085;DHT22;25786;51.504;7.344;2023-09-19T03:46:17;15.60;76.20
40085;DHT22;25786;51.504;7.344;2023-09-19T03:48:42;15.60;76.60
40085;DHT22;25786;51.504;7.344;2023-09-19T03:51:08;15.50;76.40
40085;DHT22;25786;51.504;7.344;2023-09-19T03:53:33;15.60;76.40
40085;DHT22;25786;51.504;7.344;2023-09-19T03:55:59;15.50;76.30
40085;DHT22;25786;51.504;7.344;2023-09-19T03:58:25;15.50;76.60
40085;DHT22;25786;51.504;7.344;2023-09-19T04:00:54;15.50;76.40
40085;DHT22;25786;51.504;7.344;2023-09-19T04:03:20;15.60;76.30
40085;DHT22;25786;51.504;7.344;2023-09-19T04:05:46;15.50;76.20
40085;DHT22;25786;51.504;7.344;2023-09-19T04:08:13;15.50;76.50
40085;DHT22;25786;51.504;7.344;2023-09-19T04:10:41;15.40;76.20
40085;DHT22;25786;51.504;7.344;2023-09-19T04:13:07;15.50;76.00
40085;DHT22;25786;51.504;7.344;2023-09-19T04:15:32;15.50;76.20
40085;DHT22;25786;51.504;7.344;2023-09-19T04:17:58;15.50;76.30
40085;DHT22;25786;51.504;7.344;2023-09-19T04:20:23;15.40;76.10
40085;DHT22;25786;51.504;7.344;2023-09-19T04:22:49;15.50;76.30
40085;DHT22;25786;51.504;7.344;2023-09-19T04:25:15;15.50;76.30
40085;DHT22;25786;51.504;7.344;2023-09-19T04:27:40;15.40;76.40
40085;DHT22;25786;51.504;7.344;2023-09-19T04:30:09;15.50;76.00
40085;DHT22;25786;51.504;7.344;2023-09-19T04:32:40;15.50;76.00
40085;DHT22;25786;51.504;7.344;2023-09-19T04:35:06;15.50;75.80
40085;DHT22;25786;51.504;7.344;2023-09-19T04:37:37;15.50;75.90
40085;DHT22;25786;51.504;7.344;2023-09-19T04:43:01;15.40;76.20
40085;DHT22;25786;51.504;7.344;2023-09-19T04:45:27;15.40;76.20
40085;DHT22;25786;51.504;7.344;2023-09-19T04:47:53;15.40;76.30
40085;DHT22;25786;51.504;7.344;2023-09-19T04:50:18;15.40;76.10
40085;DHT22;25786;51.504;7.344;2023-09-19T04:52:44;15.30;77.00
40085;DHT22;25786;51.504;7.344;2023-09-19T04:55:12;15.30;76.70
40085;DHT22;25786;51.504;7.344;2023-09-19T04:57:50;15.40;76.60
40085;DHT22;25786;51.504;7.344;2023-09-19T05:00:23;15.40;76.50
40085;DHT22;25786;51.504;7.344;2023-09-19T05:08:58;15.40;76.40
40085;DHT22;25786;51.504;7.344;2023-09-19T05:11:25;15.50;76.30
40085;DHT22;25786;51.504;7.344;2023-09-19T05:13:51;15.30;76.60
40085;DHT22;25786;51.504;7.344;2023-09-19T05:16:17;15.20;77.40
40085;DHT22;25786;51.504;7.344;2023-09-19T05:18:43;15.10;77.80
40085;DHT22;25786;51.504;7.344;2023-09-19T05:21:08;15.10;77.90
40085;DHT22;25786;51.504;7.344;2023-09-19T05:23:34;15.10;78.10
40085;DHT22;25786;51.504;7.344;2023-09-19T05:25:59;15.10;78.10
40085;DHT22;25786;51.504;7.344;2023-09-19T05:28:25;15.10;78.40
40085;DHT22;25786;51.504;7.344;2023-09-19T05:30:54;15.10;78.50
40085;DHT22;25786;51.504;7.344;2023-09-19T05:38:58;15.10;78.50
40085;DHT22;25786;51.504;7.344;2023-09-19T05:41:25;15.20;78.20
40085;DHT22;25786;51.504;7.344;2023-09-19T05:43:51;15.20;78.10
40085;DHT22;25786;51.504;7.344;2023-09-19T05:46:19;15.30;78.10
40085;DHT22;25786;51.504;7.344;2023-09-19T05:57:55;15.30;77.90
40085;DHT22;25786;51.504;7.344;2023-09-19T06:03:35;15.30;77.60
40085;DHT22;25786;51.504;7.344;2023-09-19T06:06:04;15.40;77.30
40085;DHT22;25786;51.504;7.344;2023-09-19T06:11:32;15.40;77.30
40085;DHT22;25786;51.504;7.344;2023-09-19T06:14:01;15.50;77.10
40085;DHT22;25786;51.504;7.344;2023-09-19T06:16:30;15.50;77.10
40085;DHT22;25786;51.504;7.344;2023-09-19T06:18:57;15.60;76.80
40085;DHT22;25786;51.504;7.344;2023-09-19T06:21:25;15.60;76.70
40085;DHT22;25786;51.504;7.344;2023-09-19T06:23:52;15.60;76.70
40085;DHT22;25786;51.504;7.344;2023-09-19T06:26:17;15.60;76.50
40085;DHT22;25786;51.504;7.344;2023-09-19T06:28:43;15.60;76.70
40085;DHT22;25786;51.504;7.344;2023-09-19T06:31:09;15.60;76.70
40085;DHT22;25786;51.504;7.344;2023-09-19T06:33:38;15.70;76.50
40085;DHT22;25786;51.504;7.344;2023-09-19T06:36:07;15.70;76.30
40085;DHT22;25786;51.504;7.344;2023-09-19T06:38:33;15.70;76.10
40085;DHT22;25786;51.504;7.344;2023-09-19T06:41:02;15.70;76.40
40085;DHT22;25786;51.504;7.344;2023-09-19T06:43:30;15.80;75.80
40085;DHT22;25786;51.504;7.344;2023-09-19T06:45:56;15.80;76.10
40085;DHT22;25786;51.504;7.344;2023-09-19T06:48:22;15.80;75.60
40085;DHT22;25786;51.504;7.344;2023-09-19T06:50:50;15.80;75.90
40085;DHT22;25786;51.504;7.344;2023-09-19T06:53:16;15.90;75.60
40085;DHT22;25786;51.504;7.344;2023-09-19T06:55:41;15.90;75.90
40085;DHT22;25786;51.504;7.344;2023-09-19T06:58:09;15.80;75.70
40085;DHT22;25786;51.504;7.344;2023-09-19T07:00:35;15.90;76.00
40085;DHT22;25786;51.504;7.344;2023-09-19T07:03:02;15.90;75.60
40085;DHT22;25786;51.504;7.344;2023-09-19T07:05:31;16.00;75.70
40085;DHT22;25786;51.504;7.344;2023-09-19T07:07:59;16.00;75.50
40085;DHT22;25786;51.504;7.344;2023-09-19T07:10:27;16.00;75.40
40085;DHT22;25786;51.504;7.344;2023-09-19T07:13:03;16.00;75.40
40085;DHT22;25786;51.504;7.344;2023-09-19T07:15:31;16.00;75.50
40085;DHT22;25786;51.504;7.344;2023-09-19T07:17:58;16.00;75.50
40085;DHT22;25786;51.504;7.344;2023-09-19T07:20:25;16.00;75.80
40085;DHT22;25786;51.504;7.344;2023-09-19T07:22:52;16.10;76.00
40085;DHT22;25786;51.504;7.344;2023-09-19T07:25:17;16.10;75.80
40085;DHT22;25786;51.504;7.344;2023-09-19T07:27:43;16.10;75.60
40085;DHT22;25786;51.504;7.344;2023-09-19T07:30:09;16.20;75.70
40085;DHT22;25786;51.504;7.344;2023-09-19T07:32:35;16.20;75.60
40085;DHT22;25786;51.504;7.344;2023-09-19T07:35:04;16.30;76.00
40085;DHT22;25786;51.504;7.344;2023-09-19T07:37:31;16.40;75.20
40085;DHT22;25786;51.504;7.344;2023-09-19T07:39:59;16.50;75.30
40085;DHT22;25786;51.504;7.344;2023-09-19T07:42:24;16.50;75.60
40085;DHT22;25786;51.504;7.344;2023-09-19T07:44:51;16.50;75.20
40085;DHT22;25786;51.504;7.344;2023-09-19T07:47:16;16.40;75.40
40085;DHT22;25786;51.504;7.344;2023-09-19T07:49:42;16.40;75.50
40085;DHT22;25786;51.504;7.344;2023-09-19T07:52:08;16.50;75.50
40085;DHT22;25786;51.504;7.344;2023-09-19T07:54:34;16.50;75.40
40085;DHT22;25786;51.504;7.344;2023-09-19T07:57:01;16.50;75.40
40085;DHT22;25786;51.504;7.344;2023-09-19T07:59:26;16.60;75.30
40085;DHT22;25786;51.504;7.344;2023-09-19T08:01:52;16.60;75.20
40085;DHT22;25786;51.504;7.344;2023-09-19T08:04:17;16.50;75.30
40085;DHT22;25786;51.504;7.344;2023-09-19T08:06:44;16.60;75.30
40085;DHT22;25786;51.504;7.344;2023-09-19T08:09:10;16.60;75.50
40085;DHT22;25786;51.504;7.344;2023-09-19T08:11:36;16.70;75.20
40085;DHT22;25786;51.504;7.344;2023-09-19T08:14:02;16.80;75.20
40085;DHT22;25786;51.504;7.344;2023-09-19T08:16:27;16.80;74.80
40085;DHT22;25786;51.504;7.344;2023-09-19T08:18:53;16.80;74.70
40085;DHT22;25786;51.504;7.344;2023-09-19T08:21:23;16.90;74.80
40085;DHT22;25786;51.504;7.344;2023-09-19T08:23:49;17.00;74.50
40085;DHT22;25786;51.504;7.344;2023-09-19T08:26:15;16.90;74.90
40085;DHT22;25786;51.504;7.344;2023-09-19T08:28:40;17.00;74.90
40085;DHT22;25786;51.504;7.344;2023-09-19T08:31:06;17.10;74.70
40085;DHT22;25786;51.504;7.344;2023-09-19T08:33:34;17.10;74.20
40085;DHT22;25786;51.504;7.344;2023-09-19T08:36:00;17.10;74.10
40085;DHT22;25786;51.504;7.344;2023-09-19T08:38:26;17.10;74.30
40085;DHT22;25786;51.504;7.344;2023-09-19T08:40:58;17.10;73.40
40085;DHT22;25786;51.504;7.344;2023-09-19T08:43:25;17.10;73.90
40085;DHT22;25786;51.504;7.344;2023-09-19T08:45:56;17.10;73.40
40085;DHT22;25786;51.504;7.344;2023-09-19T08:54:31;17.10;73.10
40085;DHT22;25786;51.504;7.344;2023-09-19T08:57:09;17.10;73.60
40085;DHT22;25786;51.504;7.344;2023-09-19T09:11:43;17.60;72.50
40085;DHT22;25786;51.504;7.344;2023-09-19T09:20:04;17.60;71.60
40085;DHT22;25786;51.504;7.344;2023-09-19T09:34:59;17.90;69.90
40085;DHT22;25786;51.504;7.344;2023-09-19T09:40:01;17.90;69.30
40085;DHT22;25786;51.504;7.344;2023-09-19T09:42:41;18.10;69.30
40085;DHT22;25786;51.504;7.344;2023-09-19T09:47:43;18.10;68.80
40085;DHT22;25786;51.504;7.344;2023-09-19T09:50:31;18.10;67.70
40085;DHT22;25786;51.504;7.344;2023-09-19T09:56:02;18.00;67.30
40085;DHT22;25786;51.504;7.344;2023-09-19T09:58:31;18.10;67.20
40085;DHT22;25786;51.504;7.344;2023-09-19T10:00:58;18.20;67.30
40085;DHT22;25786;51.504;7.344;2023-09-19T10:03:30;18.20;66.60
40085;DHT22;25786;51.504;7.344;2023-09-19T10:05:57;18.20;66.40
40085;DHT22;25786;51.504;7.344;2023-09-19T10:08:23;18.20;67.40
40085;DHT22;25786;51.504;7.344;2023-09-19T10:10:56;18.30;66.90
40085;DHT22;25786;51.504;7.344;2023-09-19T10:13:29;18.50;67.00
40085;DHT22;25786;51.504;7.344;2023-09-19T10:15:56;18.50;66.30
40085;DHT22;25786;51.504;7.344;2023-09-19T10:18:24;18.60;65.00
40085;DHT22;25786;51.504;7.344;2023-09-19T10:20:50;18.60;65.70
40085;DHT22;25786;51.504;7.344;2023-09-19T10:23:34;18.80;64.90
40085;DHT22;25786;51.504;7.344;2023-09-19T10:26:01;18.80;64.30
40085;DHT22;25786;51.504;7.344;2023-09-19T10:28:27;18.80;65.30
40085;DHT22;25786;51.504;7.344;2023-09-19T10:30:54;18.70;65.10
40085;DHT22;25786;51.504;7.344;2023-09-19T10:33:22;18.70;66.10
40085;DHT22;25786;51.504;7.344;2023-09-19T10:35:49;18.70;66.10
40085;DHT22;25786;51.504;7.344;2023-09-19T10:38:19;18.80;66.00
40085;DHT22;25786;51.504;7.344;2023-09-19T10:40:50;18.80;64.90
40085;DHT22;25786;51.504;7.344;2023-09-19T10:43:17;18.80;65.10
40085;DHT22;25786;51.504;7.344;2023-09-19T10:45:43;18.80;65.10
40085;DHT22;25786;51.504;7.344;2023-09-19T10:48:09;18.90;64.10
40085;DHT22;25786;51.504;7.344;2023-09-19T10:50:44;19.00;63.20
40085;DHT22;25786;51.504;7.344;2023-09-19T10:53:10;19.10;62.70
40085;DHT22;25786;51.504;7.344;2023-09-19T10:55:37;19.10;62.60
40085;DHT22;25786;51.504;7.344;2023-09-19T10:58:03;19.30;62.50
40085;DHT22;25786;51.504;7.344;2023-09-19T11:03:21;19.40;62.30
40085;DHT22;25786;51.504;7.344;2023-09-19T11:06:08;19.50;61.00
40085;DHT22;25786;51.504;7.344;2023-09-19T11:11:39;19.60;61.10
40085;DHT22;25786;51.504;7.344;2023-09-19T11:22:55;19.50;60.00
40085;DHT22;25786;51.504;7.344;2023-09-19T11:30:58;19.50;61.60
40085;DHT22;25786;51.504;7.344;2023-09-19T11:33:31;19.60;60.80
40085;DHT22;25786;51.504;7.344;2023-09-19T11:36:05;19.60;59.80
40085;DHT22;25786;51.504;7.344;2023-09-19T11:49:29;19.70;60.20
40085;DHT22;25786;51.504;7.344;2023-09-19T11:52:01;19.80;60.20
40085;DHT22;25786;51.504;7.344;2023-09-19T11:54:37;19.80;59.10
40085;DHT22;25786;51.504;7.344;2023-09-19T11:57:06;19.80;58.50
40085;DHT22;25786;51.504;7.344;2023-09-19T11:59:33;19.80;59.10
40085;DHT22;25786;51.504;7.344;2023-09-19T12:02:05;19.80;59.90
40085;DHT22;25786;51.504;7.344;2023-09-19T12:07:16;20.10;58.20
40085;DHT22;25786;51.504;7.344;2023-09-19T12:12:52;20.10;58.30
40085;DHT22;25786;51.504;7.344;2023-09-19T12:15:28;20.20;59.30
40085;DHT22;25786;51.504;7.344;2023-09-19T12:24:07;20.20;58.10
40085;DHT22;25786;51.504;7.344;2023-09-19T12:26:39;20.10;57.40
40085;DHT22;25786;51.504;7.344;2023-09-19T12:29:12;20.10;57.50
40085;DHT22;25786;51.504;7.344;2023-09-19T12:31:46;20.10;58.10
40085;DHT22;25786;51.504;7.344;2023-09-19T12:34:16;20.10;57.30
40085;DHT22;25786;51.504;7.344;2023-09-19T12:36:41;20.10;57.40
40085;DHT22;25786;51.504;7.344;2023-09-19T12:39:07;20.20;56.90
40085;DHT22;25786;51.504;7.344;2023-09-19T12:41:37;20.10;56.90
40085;DHT22;25786;51.504;7.344;2023-09-19T12:44:39;20.10;57.10
40085;DHT22;25786;51.504;7.344;2023-09-19T12:50:12;20.10;57.30
40085;DHT22;25786;51.504;7.344;2023-09-19T12:55:58;20.10;57.30
40085;DHT22;25786;51.504;7.344;2023-09-19T12:58:27;20.10;57.30
40085;DHT22;25786;51.504;7.344;2023-09-19T13:01:04;20.20;57.20
40085;DHT22;25786;51.504;7.344;2023-09-19T13:04:09;20.20;56.80
40085;DHT22;25786;51.504;7.344;2023-09-19T13:06:54;20.30;56.00
40085;DHT22;25786;51.504;7.344;2023-09-19T13:10:01;20.40;55.60
40085;DHT22;25786;51.504;7.344;2023-09-19T13:15:10;20.50;56.30
40085;DHT22;25786;51.504;7.344;2023-09-19T13:18:15;20.60;55.90
40085;DHT22;25786;51.504;7.344;2023-09-19T13:20:41;20.60;54.50
40085;DHT22;25786;51.504;7.344;2023-09-19T13:23:30;20.60;54.40
40085;DHT22;25786;51.504;7.344;2023-09-19T13:25:57;20.50;54.80
40085;DHT22;25786;51.504;7.344;2023-09-19T13:28:26;20.50;55.20
40085;DHT22;25786;51.504;7.344;2023-09-19T13:31:03;20.50;53.70
40085;DHT22;25786;51.504;7.344;2023-09-19T13:33:49;20.50;54.20
40085;DHT22;25786;51.504;7.344;2023-09-19T13:36:24;20.50;54.70
40085;DHT22;25786;51.504;7.344;2023-09-19T13:38:49;20.50;54.00
40085;DHT22;25786;51.504;7.344;2023-09-19T13:41:15;20.50;53.20
40085;DHT22;25786;51.504;7.344;2023-09-19T13:43:41;20.60;53.60
40085;DHT22;25786;51.504;7.344;2023-09-19T13:46:33;20.60;54.10
40085;DHT22;25786;51.504;7.344;2023-09-19T13:49:00;20.70;53.80
40085;DHT22;25786;51.504;7.344;2023-09-19T13:51:31;20.80;53.40
40085;DHT22;25786;51.504;7.344;2023-09-19T13:53:57;20.80;53.30
40085;DHT22;25786;51.504;7.344;2023-09-19T13:56:22;20.70;54.00
40085;DHT22;25786;51.504;7.344;2023-09-19T13:58:51;20.80;54.70
40085;DHT22;25786;51.504;7.344;2023-09-19T14:01:20;20.80;54.50
40085;DHT22;25786;51.504;7.344;2023-09-19T14:03:46;20.80;53.70
40085;DHT22;25786;51.504;7.344;2023-09-19T14:06:14;20.70;53.80
40085;DHT22;25786;51.504;7.344;2023-09-19T14:08:40;20.80;54.40
40085;DHT22;25786;51.504;7.344;2023-09-19T14:11:06;20.80;54.30
40085;DHT22;25786;51.504;7.344;2023-09-19T14:13:32;20.80;53.80
40085;DHT22;25786;51.504;7.344;2023-09-19T14:15:57;20.80;53.90
40085;DHT22;25786;51.504;7.344;2023-09-19T14:18:23;20.80;54.30
40085;DHT22;25786;51.504;7.344;2023-09-19T14:20:49;20.80;54.10
40085;DHT22;25786;51.504;7.344;2023-09-19T14:23:18;20.90;54.60
40085;DHT22;25786;51.504;7.344;2023-09-19T14:25:43;20.80;54.40
40085;DHT22;25786;51.504;7.344;2023-09-19T14:28:09;20.70;54.40
40085;DHT22;25786;51.504;7.344;2023-09-19T14:30:34;20.70;54.30
40085;DHT22;25786;51.504;7.344;2023-09-19T14:33:02;20.70;54.80
40085;DHT22;25786;51.504;7.344;2023-09-19T14:35:28;20.60;55.00
40085;DHT22;25786;51.504;7.344;2023-09-19T14:37:53;20.60;55.40
40085;DHT22;25786;51.504;7.344;2023-09-19T14:40:21;20.60;55.60
40085;DHT22;25786;51.504;7.344;2023-09-19T14:42:47;20.60;55.80
40085;DHT22;25786;51.504;7.344;2023-09-19T14:45:13;20.60;55.70
40085;DHT22;25786;51.504;7.344;2023-09-19T14:47:43;20.60;55.30
40085;DHT22;25786;51.504;7.344;2023-09-19T14:50:09;20.50;56.30
40085;DHT22;25786;51.504;7.344;2023-09-19T14:52:34;20.60;56.30
40085;DHT22;25786;51.504;7.344;2023-09-19T14:55:01;20.60;56.20
40085;DHT22;25786;51.504;7.344;2023-09-19T14:57:27;20.60;56.20
40085;DHT22;25786;51.504;7.344;2023-09-19T14:59:52;20.50;56.50
40085;DHT22;25786;51.504;7.344;2023-09-19T15:02:18;20.50;56.60
40085;DHT22;25786;51.504;7.344;2023-09-19T15:04:44;20.50;56.90
40085;DHT22;25786;51.504;7.344;2023-09-19T15:07:12;20.50;57.30
40085;DHT22;25786;51.504;7.344;2023-09-19T15:09:38;20.50;57.40
40085;DHT22;25786;51.504;7.344;2023-09-19T15:12:06;20.40;57.80
40085;DHT22;25786;51.504;7.344;2023-09-19T15:14:32;20.50;58.00
40085;DHT22;25786;51.504;7.344;2023-09-19T15:16:57;20.30;57.50
40085;DHT22;25786;51.504;7.344;2023-09-19T15:19:23;20.30;57.80
40085;DHT22;25786;51.504;7.344;2023-09-19T15:21:48;20.20;57.70
40085;DHT22;25786;51.504;7.344;2023-09-19T15:24:14;20.20;58.10
40085;DHT22;25786;51.504;7.344;2023-09-19T15:26:40;20.10;59.00
40085;DHT22;25786;51.504;7.344;2023-09-19T15:29:08;20.10;59.00
40085;DHT22;25786;51.504;7.344;2023-09-19T15:31:34;20.10;58.60
40085;DHT22;25786;51.504;7.344;2023-09-19T15:34:02;20.00;59.40
40085;DHT22;25786;51.504;7.344;2023-09-19T15:36:27;20.00;59.30
40085;DHT22;25786;51.504;7.344;2023-09-19T15:39:00;20.00;59.60
40085;DHT22;25786;51.504;7.344;2023-09-19T15:41:30;19.90;59.90
40085;DHT22;25786;51.504;7.344;2023-09-19T15:43:56;19.90;59.70
40085;DHT22;25786;51.504;7.344;2023-09-19T15:46:22;19.90;60.20
40085;DHT22;25786;51.504;7.344;2023-09-19T15:48:47;19.90;59.60
40085;DHT22;25786;51.504;7.344;2023-09-19T15:51:13;19.80;60.00
40085;DHT22;25786;51.504;7.344;2023-09-19T15:53:45;19.90;59.80
40085;DHT22;25786;51.504;7.344;2023-09-19T15:56:11;19.90;59.90
40085;DHT22;25786;51.504;7.344;2023-09-19T15:58:40;19.90;59.50
40085;DHT22;25786;51.504;7.344;2023-09-19T16:01:06;20.00;59.80
40085;DHT22;25786;51.504;7.344;2023-09-19T16:03:35;20.00;59.50
40085;DHT22;25786;51.504;7.344;2023-09-19T16:06:01;20.10;59.30
40085;DHT22;25786;51.504;7.344;2023-09-19T16:08:26;20.00;59.00
40085;DHT22;25786;51.504;7.344;2023-09-19T16:10:52;19.90;59.50
40085;DHT22;25786;51.504;7.344;2023-09-19T16:13:18;19.90;59.40
40085;DHT22;25786;51.504;7.344;2023-09-19T16:15:43;19.90;59.00
40085;DHT22;25786;51.504;7.344;2023-09-19T16:18:09;19.80;59.90
40085;DHT22;25786;51.504;7.344;2023-09-19T16:20:35;19.80;60.00
40085;DHT22;25786;51.504;7.344;2023-09-19T16:23:04;19.80;59.00
40085;DHT22;25786;51.504;7.344;2023-09-19T16:25:29;19.80;59.80
40085;DHT22;25786;51.504;7.344;2023-09-19T16:27:55;19.70;59.40
40085;DHT22;25786;51.504;7.344;2023-09-19T16:30:23;19.60;60.00
40085;DHT22;25786;51.504;7.344;2023-09-19T16:32:49;19.60;60.30
40085;DHT22;25786;51.504;7.344;2023-09-19T16:35:14;19.60;60.10
40085;DHT22;25786;51.504;7.344;2023-09-19T16:37:41;19.60;60.40
40085;DHT22;25786;51.504;7.344;2023-09-19T16:40:06;19.60;60.40
40085;DHT22;25786;51.504;7.344;2023-09-19T16:42:33;19.60;60.40
40085;DHT22;25786;51.504;7.344;2023-09-19T16:44:59;19.60;60.50
40085;DHT22;25786;51.504;7.344;2023-09-19T16:47:24;19.60;60.60
40085;DHT22;25786;51.504;7.344;2023-09-19T16:49:50;19.70;60.20
40085;DHT22;25786;51.504;7.344;2023-09-19T16:52:18;19.70;60.50
40085;DHT22;25786;51.504;7.344;2023-09-19T16:54:43;19.70;60.40
40085;DHT22;25786;51.504;7.344;2023-09-19T16:57:09;19.60;60.30
40085;DHT22;25786;51.504;7.344;2023-09-19T16:59:34;19.60;60.30
40085;DHT22;25786;51.504;7.344;2023-09-19T17:02:00;19.60;60.50
40085;DHT22;25786;51.504;7.344;2023-09-19T17:04:28;19.60;60.70
40085;DHT22;25786;51.504;7.344;2023-09-19T17:06:56;19.50;60.70
40085;DHT22;25786;51.504;7.344;2023-09-19T17:09:22;19.50;61.30
40085;DHT22;25786;51.504;7.344;2023-09-19T17:11:48;19.50;61.20
40085;DHT22;25786;51.504;7.344;2023-09-19T17:14:16;19.40;61.20
40085;DHT22;25786;51.504;7.344;2023-09-19T17:16:43;19.40;61.70
40085;DHT22;25786;51.504;7.344;2023-09-19T17:19:09;19.40;60.90
40085;DHT22;25786;51.504;7.344;2023-09-19T17:21:37;19.40;60.80
40085;DHT22;25786;51.504;7.344;2023-09-19T17:24:03;19.40;60.70
40085;DHT22;25786;51.504;7.344;2023-09-19T17:26:33;19.40;60.90
40085;DHT22;25786;51.504;7.344;2023-09-19T17:28:58;19.50;61.10
40085;DHT22;25786;51.504;7.344;2023-09-19T17:31:24;19.40;61.10
40085;DHT22;25786;51.504;7.344;2023-09-19T17:33:51;19.40;61.50
40085;DHT22;25786;51.504;7.344;2023-09-19T17:36:18;19.20;61.50
40085;DHT22;25786;51.504;7.344;2023-09-19T17:38:44;19.30;61.90
40085;DHT22;25786;51.504;7.344;2023-09-19T17:41:10;19.20;62.20
40085;DHT22;25786;51.504;7.344;2023-09-19T17:43:41;19.20;62.40
40085;DHT22;25786;51.504;7.344;2023-09-19T17:46:07;19.20;62.10
40085;DHT22;25786;51.504;7.344;2023-09-19T17:48:36;19.20;61.70